Capitol Logistics 256


TNCM
Princess Juliana International Airport
St. Maarten, SX
TBPB
Grantley Adams International Airport
Bridgetown, BB

Activity Log

Date Flight Route Aircraft Duration
02/06/2020 CPX256 MODOR2 ELOPO L451 ANU UA632 SEKUN BENUK B763 1h 24m
11/07/2019 CPX256 N0411F230 MULLT2 ELOPO B520 ANU/N0456F370 UA632 BGI B763 1h 11m
08/27/2019 CPX256 MULLT2 ELOPO B520 ANU UA632 BGI B763 1h 15m
06/15/2019 CPX256 PJM B520 ANU UA632 BGI B763 1h 23m
05/01/2019 CPX256 PELCN2 ELOPO L451 ANU/N0444F240 A632 BIRNO B763 1h 12m
04/26/2019 CPX256 MODOR2 ELOPO B520 ANU UA632 BGI B763 1h 08m

Route Details

Aircraft Information
Primary: Boeing 767-300BDSF
Backup: Not Available
Route Data
Distance: 365nm
Sched. Duration: 1h 00m
Avg. Duration: 1h 15m (+16m)
Times Flown: 6
Recm'd Route: PJM B520 ANU UA632 BGI
Planned Altitude: 37,000ft
Origin Wx: TNCM 271700Z 11007KT 9999 -SHRA FEW008 BKN016TCU 26/25 Q1015 RERA TEMPO SHRA
Dest. Wx: TBPB 271700Z 09017KT 9999 FEW012 SCT016 30/25 Q1010 NOSIG
Notes:

Financial History
Total Freight: 521,297lbs
Average Load: 86,883lbs/flt
Fuel Used: 76,623lbs
Avg. Fuel Used: 12,771lbs/flt
Fuel Expense: $61,298
Avg. Fuel Expense: $10,216
Avg. Fuel Cost: $0.80/lbs
Total Gross Income: $664,287
Pilot Pay: $1,224
Total Expenses: $72,055
Total Revenue: $529,094
Average Revenue: $110,714.57